Time;durP1;ratioP1;P1;durP2;ratioP2;P2;SDS_P1;SDS_P2;PMS_P1;PMS_P2;Temp;Humidity;BMP_temperature;BMP_pressure;BME280_temperature;BME280_humidity;BME280_pressure;Samples;Min_cycle;Max_cycle;Signal;HPM_P1;HPM_P2
2022/10/21 00:02:04;;;;;;;;;2.00;2.00;;;;;17.05;73.77;99913.97;5098421;27;45569;-60
2022/10/21 00:04:31;;;;;;;;;1.67;1.67;;;;;17.03;73.75;99915.03;5098502;27;45375;-63
2022/10/21 00:06:56;;;;;;;;;2.00;2.00;;;;;17.01;74.19;99912.53;5098714;27;45449;-62
2022/10/21 00:09:21;;;;;;;;;3.33;2.67;;;;;16.98;74.13;99907.44;5098548;27;45349;-63
2022/10/21 00:11:47;;;;;;;;;1.75;1.75;;;;;17.01;74.20;99909.88;5098238;27;45367;-62
2022/10/21 00:14:12;;;;;;;;;3.00;3.00;;;;;16.99;74.37;99896.69;5097732;27;50785;-61
2022/10/21 00:16:37;;;;;;;;;1.25;1.25;;;;;16.98;73.88;99895.00;5098675;27;45386;-61
2022/10/21 00:19:03;;;;;;;;;1.67;1.67;;;;;16.97;74.41;99890.63;5096119;27;45571;-61
2022/10/21 00:21:28;;;;;;;;;2.67;2.00;;;;;16.96;74.41;99888.09;5097997;27;55312;-62
2022/10/21 00:23:53;;;;;;;;;2.00;1.00;;;;;16.95;74.26;99886.38;5098351;27;45402;-63
2022/10/21 00:26:19;;;;;;;;;3.67;1.33;;;;;16.97;74.18;99885.31;5097974;27;45432;-61
2022/10/21 00:28:45;;;;;;;;;3.33;2.33;;;;;16.97;74.85;99889.78;5098408;27;45558;-64
2022/10/21 00:31:13;;;;;;;;;2.00;2.00;;;;;16.96;74.45;99888.94;5098322;27;45360;-63
2022/10/21 00:33:38;;;;;;;;;1.67;1.67;;;;;16.95;74.48;99884.59;5098266;27;45408;-63
2022/10/21 00:36:06;;;;;;;;;2.33;1.67;;;;;16.92;74.74;99882.13;5098452;27;45381;-63
2022/10/21 00:38:32;;;;;;;;;1.67;1.67;;;;;16.94;74.37;99885.53;5098117;27;45331;-64
2022/10/21 00:40:58;;;;;;;;;2.67;2.67;;;;;16.92;74.74;99884.78;5097808;27;45479;-61
2022/10/21 00:43:25;;;;;;;;;2.67;2.67;;;;;16.91;74.56;99879.63;5097991;27;45534;-62
2022/10/21 00:45:56;;;;;;;;;3.00;1.67;;;;;16.91;74.60;99872.47;5098412;27;45507;-60
2022/10/21 00:48:27;;;;;;;;;1.00;1.00;;;;;16.86;74.77;99871.97;5097768;27;45464;-63
2022/10/21 00:50:59;;;;;;;;;2.33;2.33;;;;;16.84;75.06;99868.56;5097703;27;46096;-64
2022/10/21 00:53:24;;;;;;;;;2.33;2.33;;;;;16.86;75.12;99863.16;5087164;27;45489;-63
2022/10/21 00:55:55;;;;;;;;;4.00;3.00;;;;;16.85;74.61;99859.66;5094184;27;45474;-63
2022/10/21 00:58:25;;;;;;;;;2.00;2.00;;;;;16.90;74.35;99860.19;5097926;27;45430;-64
2022/10/21 01:00:54;;;;;;;;;1.50;1.50;;;;;16.92;74.57;99846.75;5097564;27;46319;-61
2022/10/21 01:03:23;;;;;;;;;3.00;2.00;;;;;16.90;74.37;99846.91;5097026;27;45424;-65
2022/10/21 01:05:49;;;;;;;;;0.67;0.67;;;;;16.86;74.51;99832.13;5097820;27;45444;-66
2022/10/21 01:08:14;;;;;;;;;2.67;2.00;;;;;16.87;74.38;99823.22;5097537;27;45642;-60
2022/10/21 01:10:40;;;;;;;;;2.00;2.00;;;;;16.87;74.78;99820.56;5097640;27;45383;-61
2022/10/21 01:13:27;;;;;;;;;2.00;2.00;;;;;16.88;74.92;99805.47;5097525;27;45395;-60
2022/10/21 01:16:09;;;;;;;;;3.00;2.00;;;;;16.87;74.38;99801.09;5097706;27;45402;-62
2022/10/21 01:19:12;;;;;;;;;3.00;2.33;;;;;16.90;74.70;99806.19;5097521;27;45405;-61
2022/10/21 01:21:46;;;;;;;;;3.67;2.67;;;;;16.92;74.91;99797.13;5097160;27;46230;-64
2022/10/21 01:24:17;;;;;;;;;3.00;3.00;;;;;16.93;74.78;99793.53;5098213;27;45448;-64
2022/10/21 01:26:58;;;;;;;;;2.33;1.33;;;;;16.94;74.73;99797.88;5097146;27;45461;-64
2022/10/21 01:29:42;;;;;;;;;3.00;3.00;;;;;16.98;74.73;99807.34;5088496;27;45514;-60
2022/10/21 01:32:23;;;;;;;;;3.00;3.00;;;;;17.00;74.65;99808.03;5089277;27;45567;-61
2022/10/21 01:35:18;;;;;;;;;3.00;3.00;;;;;17.00;74.66;99807.19;5094568;27;45381;-60
2022/10/21 01:38:05;;;;;;;;;4.33;3.00;;;;;16.99;74.76;99810.81;5076707;27;45440;-61
2022/10/21 01:41:00;;;;;;;;;2.00;2.00;;;;;17.00;74.44;99813.34;5091277;27;45459;-59
2022/10/21 01:43:37;;;;;;;;;2.00;2.00;;;;;16.97;74.66;99813.59;5096854;27;46079;-62
2022/10/21 01:46:18;;;;;;;;;2.33;2.33;;;;;16.99;74.71;99816.97;5093140;27;45418;-62
2022/10/21 01:48:49;;;;;;;;;4.00;3.00;;;;;16.99;74.82;99816.13;5088860;27;45428;-62
2022/10/21 01:51:18;;;;;;;;;2.67;2.67;;;;;17.00;74.78;99829.28;5097109;27;45484;-61
2022/10/21 01:54:10;;;;;;;;;3.33;3.00;;;;;17.05;74.53;99849.38;5096879;27;46206;-65
2022/10/21 01:56:38;;;;;;;;;2.33;2.33;;;;;17.09;74.16;99872.94;5096558;27;45443;-64
2022/10/21 01:59:04;;;;;;;;;3.00;3.00;;;;;17.11;74.75;99883.44;5095807;27;45427;-61
2022/10/21 02:01:32;;;;;;;;;4.33;4.33;;;;;17.08;74.55;99903.13;5096685;27;45381;-61
2022/10/21 02:04:01;;;;;;;;;3.00;3.00;;;;;17.04;75.30;99914.09;5085557;27;45456;-61
2022/10/21 02:06:26;;;;;;;;;2.00;2.00;;;;;16.98;75.47;99931.34;5093613;27;45345;-62
2022/10/21 02:08:52;;;;;;;;;2.67;2.67;;;;;16.96;75.90;99935.91;5095356;27;45400;-61
2022/10/21 02:11:18;;;;;;;;;1.00;1.00;;;;;16.96;76.74;99930.59;5096587;27;45472;-62
2022/10/21 02:13:53;;;;;;;;;1.33;1.33;;;;;16.93;75.74;99926.34;5095819;27;46179;-61
2022/10/21 02:16:23;;;;;;;;;1.75;1.75;;;;;16.92;76.95;99927.28;5095589;27;45334;-61
2022/10/21 02:18:49;;;;;;;;;3.33;2.67;;;;;16.92;76.71;99910.50;5096445;27;45409;-63
2022/10/21 02:21:22;;;;;;;;;2.33;1.33;;;;;16.92;77.30;99906.03;5096385;27;45431;-63
2022/10/21 02:23:52;;;;;;;;;0.67;0.67;;;;;16.95;77.90;99887.25;5097178;27;46141;-63
2022/10/21 02:26:19;;;;;;;;;2.33;1.67;;;;;16.97;77.88;99882.66;5096136;27;45523;-63
2022/10/21 02:28:45;;;;;;;;;2.00;2.00;;;;;17.03;77.87;99869.88;5096328;27;45558;-59
2022/10/21 02:31:20;;;;;;;;;2.00;2.00;;;;;17.07;78.16;99856.25;5096525;27;45508;-63
2022/10/21 02:34:08;;;;;;;;;2.67;2.67;;;;;17.12;78.29;99843.50;5096161;27;45388;-63
2022/10/21 02:36:53;;;;;;;;;3.00;3.00;;;;;17.18;78.34;99810.28;5096141;27;45430;-64
2022/10/21 02:39:41;;;;;;;;;3.33;3.33;;;;;17.26;77.74;99777.81;5082691;27;45478;-62
2022/10/21 02:42:13;;;;;;;;;3.67;3.67;;;;;17.28;77.98;99762.63;5094413;27;45498;-59
2022/10/21 02:44:38;;;;;;;;;2.67;2.67;;;;;17.25;78.04;99778.78;5095867;27;45416;-60
2022/10/21 02:47:03;;;;;;;;;3.00;3.00;;;;;17.20;78.36;99765.84;5095818;27;45461;-62
2022/10/21 02:49:29;;;;;;;;;2.33;2.33;;;;;17.20;78.37;99749.91;5096117;27;45569;-62
2022/10/21 02:51:54;;;;;;;;;3.00;2.00;;;;;17.22;78.43;99767.44;5096139;27;45646;-63
2022/10/21 02:54:20;;;;;;;;;3.33;3.33;;;;;17.24;78.51;99769.97;5095754;27;45423;-65
2022/10/21 02:56:45;;;;;;;;;1.67;1.67;;;;;17.25;78.09;99761.03;5096028;27;45465;-61
2022/10/21 02:59:11;;;;;;;;;1.67;1.67;;;;;17.23;78.59;99760.31;5095927;27;45917;-61
2022/10/21 03:01:36;;;;;;;;;3.33;2.67;;;;;17.22;78.42;99772.75;5095923;27;45412;-62
2022/10/21 03:04:01;;;;;;;;;2.67;2.67;;;;;17.20;78.78;99764.03;5095430;27;59253;-61
2022/10/21 03:06:27;;;;;;;;;3.75;3.75;;;;;17.21;78.65;99768.38;5095863;27;45469;-63
2022/10/21 03:08:52;;;;;;;;;2.33;2.33;;;;;17.21;78.48;99771.03;5094608;27;48239;-62
2022/10/21 03:11:17;;;;;;;;;1.67;1.67;;;;;17.26;78.84;99783.13;5096702;27;45597;-63
2022/10/21 03:13:43;;;;;;;;;3.67;2.67;;;;;17.24;78.68;99788.56;5095309;27;53856;-61
2022/10/21 03:16:08;;;;;;;;;2.00;2.00;;;;;17.26;78.66;99799.94;5095840;27;45351;-60
2022/10/21 03:18:33;;;;;;;;;3.33;2.00;;;;;17.27;78.99;99814.91;5096103;27;45607;-63
2022/10/21 03:20:59;;;;;;;;;2.50;2.50;;;;;17.28;78.67;99835.22;5095672;27;45370;-62
2022/10/21 03:23:27;;;;;;;;;1.50;1.50;;;;;17.31;79.19;99840.28;5094844;27;45758;-59
2022/10/21 03:25:52;;;;;;;;;1.75;1.75;;;;;17.34;78.76;99840.06;5096093;27;52458;-65
2022/10/21 03:28:18;;;;;;;;;2.75;2.75;;;;;17.33;78.82;99835.72;5099175;27;45429;-60
2022/10/21 03:30:43;;;;;;;;;3.67;2.33;;;;;17.33;78.80;99835.72;5099368;27;45450;-60
2022/10/21 03:33:08;;;;;;;;;2.50;1.75;;;;;17.34;78.40;99829.44;5099073;27;45396;-63
2022/10/21 03:35:33;;;;;;;;;3.00;1.67;;;;;17.30;78.23;99809.38;5099125;27;45461;-61
2022/10/21 03:37:59;;;;;;;;;3.67;2.67;;;;;17.23;78.62;99806.31;5089205;27;45377;-61
2022/10/21 03:40:28;;;;;;;;;1.00;1.00;;;;;17.18;78.58;99797.00;5094704;27;45362;-65
2022/10/21 03:42:54;;;;;;;;;6.00;3.00;;;;;17.14;78.58;99803.50;5099250;27;45360;-63
2022/10/21 03:45:19;;;;;;;;;2.67;2.67;;;;;17.14;78.67;99811.47;5098802;27;45369;-64
2022/10/21 03:47:46;;;;;;;;;1.00;0.75;;;;;17.15;78.71;99816.69;5099180;27;45383;-59
2022/10/21 03:50:11;;;;;;;;;2.00;2.00;;;;;17.19;78.33;99799.56;5099048;27;45493;-65
2022/10/21 03:52:36;;;;;;;;;1.67;1.67;;;;;17.16;78.29;99815.72;5098541;27;48241;-61
2022/10/21 03:55:02;;;;;;;;;2.67;1.33;;;;;17.20;78.64;99827.81;5098907;27;45596;-61
2022/10/21 03:57:27;;;;;;;;;1.75;1.75;;;;;17.22;78.14;99819.72;5099003;27;45448;-63
2022/10/21 03:59:52;;;;;;;;;2.33;2.33;;;;;17.21;78.20;99807.41;5099019;27;45717;-63
2022/10/21 04:02:18;;;;;;;;;2.33;2.00;;;;;17.22;78.06;99825.03;5098700;27;47993;-64
2022/10/21 04:04:43;;;;;;;;;3.00;3.00;;;;;17.18;78.89;99829.72;5097146;27;45967;-61
2022/10/21 04:07:09;;;;;;;;;2.00;2.00;;;;;17.18;78.03;99834.22;5098704;27;45469;-63
2022/10/21 04:09:34;;;;;;;;;1.00;1.00;;;;;17.19;78.47;99826.13;5098677;27;45663;-62
2022/10/21 04:11:59;;;;;;;;;2.67;2.00;;;;;17.19;78.54;99827.91;5098118;27;46422;-65
2022/10/21 04:14:25;;;;;;;;;4.33;3.00;;;;;17.20;78.59;99835.78;5098441;27;45530;-63
2022/10/21 04:16:50;;;;;;;;;3.00;3.00;;;;;17.20;78.44;99838.44;5098757;27;45487;-62
2022/10/21 04:19:18;;;;;;;;;4.33;2.67;;;;;17.22;78.51;99835.66;5098380;27;45480;-60
2022/10/21 04:21:44;;;;;;;;;4.00;4.00;;;;;17.23;78.28;99832.06;5098110;27;45330;-60
2022/10/21 04:24:09;;;;;;;;;2.33;2.33;;;;;17.21;78.35;99824.19;5099033;27;45428;-61
2022/10/21 04:26:35;;;;;;;;;3.00;3.00;;;;;17.21;78.79;99818.88;5098181;27;45455;-59
2022/10/21 04:29:00;;;;;;;;;3.67;3.67;;;;;17.23;79.20;99832.06;5097093;27;45672;-63
2022/10/21 04:31:26;;;;;;;;;4.00;2.67;;;;;17.22;78.61;99825.91;5098181;27;46645;-64
2022/10/21 04:33:51;;;;;;;;;4.33;4.33;;;;;17.27;79.06;99827.34;5098147;27;45540;-64
2022/10/21 04:36:17;;;;;;;;;5.00;4.00;;;;;17.28;78.77;99818.44;5098259;27;45428;-62
2022/10/21 04:38:42;;;;;;;;;4.67;3.00;;;;;17.29;79.12;99820.13;5082499;27;45622;-65
2022/10/21 04:41:08;;;;;;;;;5.67;5.00;;;;;17.29;79.08;99818.28;5097615;27;46157;-61
2022/10/21 04:43:36;;;;;;;;;3.33;3.33;;;;;17.29;79.32;99833.41;5097354;27;45440;-61
2022/10/21 04:46:01;;;;;;;;;5.33;5.33;;;;;17.30;79.36;99825.31;5097548;27;45370;-65
2022/10/21 04:48:26;;;;;;;;;5.00;4.33;;;;;17.30;79.10;99835.97;5098012;27;45399;-62
2022/10/21 04:50:53;;;;;;;;;6.67;5.67;;;;;17.30;79.46;99838.63;5097739;27;45548;-63
2022/10/21 04:53:20;;;;;;;;;5.00;5.00;;;;;17.30;79.29;99835.97;5097738;27;45456;-64
2022/10/21 04:55:50;;;;;;;;;5.00;5.00;;;;;17.30;79.53;99821.78;5097889;27;45504;-58
2022/10/21 04:58:16;;;;;;;;;4.67;4.67;;;;;17.32;78.90;99828.69;5097858;27;45429;-62
2022/10/21 05:00:41;;;;;;;;;6.67;5.00;;;;;17.30;79.37;99838.63;5097455;27;46244;-62
2022/10/21 05:03:06;;;;;;;;;6.33;6.33;;;;;17.31;79.32;99834.13;5097525;27;53022;-64
2022/10/21 05:05:32;;;;;;;;;6.67;6.67;;;;;17.29;79.74;99826.28;5097489;27;50691;-63
2022/10/21 05:07:57;;;;;;;;;4.00;4.00;;;;;17.30;79.31;99824.44;5097539;27;45513;-61
2022/10/21 05:10:24;;;;;;;;;6.67;6.67;;;;;17.29;79.48;99823.59;5097011;27;57746;-61
2022/10/21 05:12:49;;;;;;;;;6.00;6.00;;;;;17.31;79.57;99819.03;5097451;27;45369;-64
2022/10/21 05:15:15;;;;;;;;;5.33;4.00;;;;;17.32;79.32;99825.19;5097535;27;45484;-59
2022/10/21 05:17:40;;;;;;;;;5.00;4.33;;;;;17.30;79.32;99825.31;5097612;27;45343;-59
2022/10/21 05:20:06;;;;;;;;;6.33;4.67;;;;;17.29;79.45;99833.41;5096794;27;55149;-60
2022/10/21 05:22:32;;;;;;;;;7.67;5.00;;;;;17.27;79.05;99838.81;5097478;27;45503;-61
2022/10/21 05:24:57;;;;;;;;;5.00;3.67;;;;;17.29;79.16;99849.34;5097839;27;45474;-64
2022/10/21 05:27:22;;;;;;;;;5.67;4.67;;;;;17.29;78.83;99844.03;5097137;27;45493;-62
2022/10/21 05:29:47;;;;;;;;;4.00;4.00;;;;;17.31;79.27;99839.44;5097033;27;46222;-62
2022/10/21 05:32:13;;;;;;;;;3.67;3.67;;;;;17.30;79.23;99838.63;5097235;27;46364;-61
2022/10/21 05:34:38;;;;;;;;;4.33;4.33;;;;;17.33;78.95;99845.47;5095862;27;45453;-62
2022/10/21 05:37:04;;;;;;;;;5.00;5.00;;;;;17.33;78.89;99838.38;5095044;27;45326;-62
2022/10/21 05:39:29;;;;;;;;;6.33;5.00;;;;;17.32;78.88;99830.50;5084905;27;45498;-65
2022/10/21 05:41:54;;;;;;;;;5.00;3.67;;;;;17.34;78.76;99821.44;5096440;27;50607;-62
2022/10/21 05:44:20;;;;;;;;;3.67;3.67;;;;;17.33;78.59;99830.41;5096239;27;45408;-63
2022/10/21 05:46:45;;;;;;;;;5.67;4.00;;;;;17.34;78.71;99837.41;5096944;27;45615;-61
2022/10/21 05:49:11;;;;;;;;;6.00;6.00;;;;;17.35;78.75;99835.59;5095571;27;63176;-61
2022/10/21 05:51:37;;;;;;;;;5.67;5.67;;;;;17.36;78.83;99846.13;5097097;27;45374;-62
2022/10/21 05:54:04;;;;;;;;;4.75;4.75;;;;;17.39;78.77;99853.00;5096936;27;45413;-60
2022/10/21 05:56:30;;;;;;;;;7.33;5.33;;;;;17.36;78.75;99856.75;5096845;27;45528;-61
2022/10/21 05:58:55;;;;;;;;;5.00;3.00;;;;;17.39;78.65;99853.00;5096562;27;46813;-63
2022/10/21 06:01:20;;;;;;;;;3.25;3.25;;;;;17.38;78.57;99865.47;5096134;27;45366;-62
2022/10/21 06:03:46;;;;;;;;;6.67;4.33;;;;;17.39;78.65;99872.47;5096353;27;49462;-61
2022/10/21 06:06:11;;;;;;;;;5.67;5.00;;;;;17.38;78.71;99876.09;5096197;27;45421;-60
2022/10/21 06:08:40;;;;;;;;;6.00;4.67;;;;;17.42;78.32;99901.47;5096497;27;45793;-63
2022/10/21 06:11:09;;;;;;;;;4.67;4.67;;;;;17.42;78.41;99905.94;5096555;27;45527;-60
2022/10/21 06:13:35;;;;;;;;;3.67;3.67;;;;;17.40;78.89;99916.66;5096786;27;45441;-62
2022/10/21 06:16:01;;;;;;;;;6.33;5.67;;;;;17.43;78.50;99923.56;5096508;27;45624;-61
2022/10/21 06:18:27;;;;;;;;;54.67;44.67;;;;;17.43;78.80;99929.72;5088547;27;45706;-60
2022/10/21 06:20:52;;;;;;;;;4.00;4.00;;;;;17.48;78.51;99925.91;5088842;27;45521;-60
2022/10/21 06:23:18;;;;;;;;;6.67;6.67;;;;;17.49;78.19;99932.91;5081842;27;45450;-61
2022/10/21 06:25:55;;;;;;;;;5.00;5.00;;;;;17.49;78.65;99940.88;5078436;27;45496;-59
2022/10/21 06:28:21;;;;;;;;;6.67;5.00;;;;;17.52;78.51;99925.56;5077743;27;46171;-60
2022/10/21 06:30:46;;;;;;;;;5.33;5.33;;;;;17.51;78.60;99938.94;5086536;27;45359;-61
2022/10/21 06:33:12;;;;;;;;;5.00;5.00;;;;;17.56;78.14;99968.72;5095860;27;45459;-60
2022/10/21 06:35:37;;;;;;;;;4.67;4.67;;;;;17.53;78.38;99972.44;5090317;27;45438;-61
2022/10/21 06:38:02;;;;;;;;;7.00;6.33;;;;;17.54;78.40;99971.47;5086362;27;45550;-64
2022/10/21 06:40:28;;;;;;;;;6.33;5.33;;;;;17.55;78.63;99970.53;5082062;27;45595;-61
2022/10/21 06:42:53;;;;;;;;;4.67;4.67;;;;;17.56;78.63;99966.88;5084754;27;45512;-61
2022/10/21 06:45:18;;;;;;;;;4.33;4.33;;;;;17.52;78.60;99975.22;5085901;27;45586;-66
2022/10/21 06:47:44;;;;;;;;;5.67;5.67;;;;;17.51;78.88;99976.19;5094694;27;46233;-66
2022/10/21 06:50:09;;;;;;;;;5.67;5.67;;;;;17.47;78.71;99972.06;5092723;27;45378;-65
2022/10/21 06:52:34;;;;;;;;;6.33;5.00;;;;;17.45;79.06;99969.50;5096090;27;45437;-63
2022/10/21 06:55:00;;;;;;;;;6.00;5.33;;;;;17.40;78.99;99969.00;5096229;27;45354;-60
2022/10/21 06:57:26;;;;;;;;;5.50;4.50;;;;;17.37;79.39;99972.72;5091770;27;57715;-64
2022/10/21 06:59:52;;;;;;;;;9.00;7.67;;;;;17.35;79.41;99958.69;5094712;27;45460;-64
2022/10/21 07:02:17;;;;;;;;;5.67;5.67;;;;;17.35;79.28;99961.34;5092779;27;45493;-65
2022/10/21 07:04:44;;;;;;;;;10.00;7.00;;;;;17.36;79.50;99960.41;5095576;27;45459;-60
2022/10/21 07:07:10;;;;;;;;;4.00;4.00;;;;;17.34;79.22;99954.34;5099401;27;45928;-61
2022/10/21 07:09:36;;;;;;;;;6.00;6.00;;;;;17.33;79.05;99957.97;5098523;27;45488;-61
2022/10/21 07:12:01;;;;;;;;;5.00;5.00;;;;;17.36;79.12;99964.88;5097132;27;45416;-60
2022/10/21 07:14:27;;;;;;;;;5.00;5.00;;;;;17.37;79.12;99974.53;5097929;27;45388;-65
2022/10/21 07:16:52;;;;;;;;;4.00;4.00;;;;;17.40;79.12;99987.59;5098733;27;50096;-61
2022/10/21 07:19:18;;;;;;;;;3.00;3.00;;;;;17.37;78.97;100009.94;5098582;27;45458;-63
2022/10/21 07:21:43;;;;;;;;;6.00;6.00;;;;;17.35;78.77;100006.53;5098677;27;45419;-63
2022/10/21 07:24:12;;;;;;;;;5.67;5.00;;;;;17.34;79.49;100014.66;5098790;27;45424;-62
2022/10/21 07:26:38;;;;;;;;;4.67;4.67;;;;;17.33;78.93;100027.09;5079942;27;47334;-63
2022/10/21 07:29:04;;;;;;;;;3.00;2.00;;;;;17.31;79.36;99999.75;5098576;27;45588;-63
2022/10/21 07:31:35;;;;;;;;;6.67;5.33;;;;;17.33;79.21;99981.91;5097339;27;45477;-62
2022/10/21 07:34:02;;;;;;;;;13.33;11.67;;;;;17.33;78.79;100000.50;5098470;27;45582;-60
2022/10/21 07:36:31;;;;;;;;;3.75;3.75;;;;;17.37;78.49;100015.25;5098250;27;45477;-63
2022/10/21 07:38:58;;;;;;;;;2.00;2.00;;;;;17.36;78.27;100029.53;5083746;27;45509;-63
2022/10/21 07:41:26;;;;;;;;;2.00;2.00;;;;;17.35;78.08;100027.81;5098399;27;45418;-60
2022/10/21 07:43:52;;;;;;;;;3.25;1.75;;;;;17.34;78.26;100028.78;5096934;27;45653;-62
2022/10/21 07:46:19;;;;;;;;;1.50;1.50;;;;;17.31;78.19;100034.31;5098332;27;45463;-61
2022/10/21 07:48:44;;;;;;;;;2.50;2.50;;;;;17.29;78.37;100027.41;5098188;27;45454;-64
2022/10/21 07:51:14;;;;;;;;;3.25;2.50;;;;;17.31;78.42;100031.66;5098255;27;45412;-62
2022/10/21 07:53:40;;;;;;;;;2.75;2.75;;;;;17.27;78.45;100024.84;5098268;27;45551;-64
2022/10/21 07:56:12;;;;;;;;;3.25;2.75;;;;;17.29;78.72;100030.06;5097850;27;45385;-61
2022/10/21 07:58:38;;;;;;;;;7.33;5.33;;;;;17.29;78.92;100036.22;5098037;27;45429;-61
2022/10/21 08:01:05;;;;;;;;;5.00;3.75;;;;;17.31;78.87;100030.81;5097823;27;45550;-63
2022/10/21 08:03:31;;;;;;;;;3.25;1.75;;;;;17.31;78.90;100029.00;5097846;27;45515;-63
2022/10/21 08:05:57;;;;;;;;;3.33;3.33;;;;;17.31;79.09;100030.81;5097755;27;46312;-64
2022/10/21 08:08:23;;;;;;;;;4.00;4.00;;;;;17.30;78.63;100034.41;5097900;27;45807;-64
2022/10/21 08:10:49;;;;;;;;;3.67;3.67;;;;;17.33;78.99;100036.84;5098358;27;45504;-62
2022/10/21 08:13:16;;;;;;;;;3.00;2.25;;;;;17.35;78.93;100043.75;5096874;27;45372;-64
2022/10/21 08:15:46;;;;;;;;;3.00;3.00;;;;;17.36;78.88;100041.97;5097821;27;46483;-63
2022/10/21 08:18:11;;;;;;;;;4.00;3.00;;;;;17.37;79.01;100035.69;5097770;27;45550;-62
2022/10/21 08:20:42;;;;;;;;;9.67;6.67;;;;;17.44;79.14;100043.09;5097925;27;45486;-61
2022/10/21 08:23:09;;;;;;;;;3.67;3.67;;;;;17.52;79.02;100039.03;5097908;27;45390;-59
2022/10/21 08:25:34;;;;;;;;;2.25;1.00;;;;;17.56;78.83;100045.81;5098207;27;45418;-62
2022/10/21 08:28:00;;;;;;;;;8.33;8.33;;;;;17.59;79.04;100041.13;5097297;27;45510;-62
2022/10/21 08:30:28;;;;;;;;;5.67;5.67;;;;;17.58;79.02;100042.09;5097760;27;45690;-60
2022/10/21 08:32:55;;;;;;;;;2.25;2.25;;;;;17.59;78.50;100030.47;5097476;27;45543;-61
2022/10/21 08:35:20;;;;;;;;;4.00;4.00;;;;;17.61;78.91;100038.34;5097437;27;45522;-62
2022/10/21 08:37:47;;;;;;;;;3.75;1.75;;;;;17.62;78.92;100032.94;5089232;27;45469;-64
2022/10/21 08:40:13;;;;;;;;;2.75;2.75;;;;;17.66;78.70;100042.38;5095764;27;45525;-66
2022/10/21 08:42:41;;;;;;;;;12.67;12.00;;;;;17.69;78.79;100045.78;5097472;27;45362;-63
2022/10/21 08:45:14;;;;;;;;;7.67;7.67;;;;;17.73;78.74;100045.44;5097170;27;45951;-63
2022/10/21 08:47:45;;;;;;;;;5.00;3.75;;;;;17.76;78.43;100047.00;5096889;27;45415;-64
2022/10/21 08:50:23;;;;;;;;;9.67;5.67;;;;;17.77;78.79;100041.56;5097178;27;45495;-63
2022/10/21 08:52:58;;;;;;;;;5.33;5.33;;;;;17.77;78.76;100049.56;5097327;27;45400;-62
2022/10/21 08:55:37;;;;;;;;;4.00;4.00;;;;;17.76;78.68;100055.84;5096105;27;46048;-65
2022/10/21 08:58:04;;;;;;;;;2.75;2.75;;;;;17.81;78.47;100056.41;5083958;27;45460;-62
2022/10/21 09:00:34;;;;;;;;;3.25;3.25;;;;;17.88;78.58;100052.28;5097253;27;45520;-62
2022/10/21 09:03:08;;;;;;;;;1.75;1.75;;;;;18.01;78.60;100062.03;5097264;27;45587;-63
2022/10/21 09:05:45;;;;;;;;;4.00;4.00;;;;;18.02;77.85;100053.06;5096851;27;45408;-62
2022/10/21 09:09:08;;;;;;;;;2.75;2.75;;;;;18.07;78.25;100058.91;5096668;27;45783;-60
2022/10/21 09:11:50;;;;;;;;;3.50;3.50;;;;;18.14;77.86;100054.81;5054007;28;45404;-63
2022/10/21 09:14:21;;;;;;;;;6.00;6.00;;;;;18.16;77.96;100052.91;5053817;28;45499;-62
2022/10/21 09:17:06;;;;;;;;;0.25;0.25;;;;;18.18;77.29;100050.94;5085619;27;46248;-67
2022/10/21 09:19:52;;;;;;;;;4.00;4.00;;;;;18.23;77.18;100053.28;5096623;27;45541;-64
2022/10/21 09:22:37;;;;;;;;;4.00;4.00;;;;;18.26;77.00;100050.38;5095464;27;45487;-62
2022/10/21 09:25:15;;;;;;;;;4.00;3.00;;;;;18.33;76.96;100057.78;5096653;27;45524;-64
2022/10/21 09:27:41;;;;;;;;;3.75;3.75;;;;;18.42;77.12;100052.72;5096520;27;45472;-61
2022/10/21 09:30:07;;;;;;;;;7.00;5.75;;;;;18.49;77.20;100054.78;5096396;27;45411;-61
2022/10/21 09:32:38;;;;;;;;;6.00;4.25;;;;;18.57;76.34;100054.19;5096726;27;45524;-60
2022/10/21 09:35:31;;;;;;;;;6.50;5.00;;;;;18.61;76.17;100050.31;5096221;27;45651;-60
2022/10/21 09:38:10;;;;;;;;;7.75;7.00;;;;;18.64;75.96;100058.06;5086674;27;45609;-64
2022/10/21 09:40:35;;;;;;;;;7.75;6.50;;;;;18.68;76.96;100048.88;5093346;27;45424;-61
2022/10/21 09:43:02;;;;;;;;;6.75;6.00;;;;;18.75;76.89;100047.47;5096656;27;45364;-60
2022/10/21 09:45:40;;;;;;;;;4.75;4.75;;;;;18.77;76.92;100040.19;5096445;27;45453;-61
2022/10/21 09:48:16;;;;;;;;;7.00;7.00;;;;;18.84;76.62;100055.72;5096308;27;45393;-60
2022/10/21 09:50:42;;;;;;;;;11.67;11.67;;;;;18.82;75.98;100044.31;5095954;27;45447;-63
2022/10/21 09:53:17;;;;;;;;;7.00;7.00;;;;;18.77;76.01;100048.19;5096228;27;45427;-60
2022/10/21 09:55:46;;;;;;;;;6.25;5.75;;;;;18.75;76.11;100050.16;5095870;27;45507;-61
2022/10/21 09:58:26;;;;;;;;;5.00;5.00;;;;;18.72;75.79;100052.16;5095771;27;46278;-63
2022/10/21 10:00:52;;;;;;;;;6.00;6.00;;;;;18.71;76.03;100053.97;5095939;27;45578;-59
2022/10/21 10:03:35;;;;;;;;;5.75;5.75;;;;;18.71;75.71;100061.13;5095879;27;45582;-60
2022/10/21 10:06:02;;;;;;;;;6.00;5.50;;;;;18.70;75.73;100062.09;5095904;27;45367;-59
2022/10/21 10:08:47;;;;;;;;;9.75;7.75;;;;;18.72;76.25;100062.81;5095673;27;47276;-62
2022/10/21 10:11:20;;;;;;;;;8.50;7.50;;;;;18.75;75.74;100068.78;5095827;27;45485;-59
2022/10/21 10:13:51;;;;;;;;;6.00;6.00;;;;;18.77;75.33;100058.00;5096136;27;45392;-63
2022/10/21 10:16:25;;;;;;;;;6.50;6.00;;;;;18.78;75.51;100062.38;5095655;27;45564;-61
2022/10/21 10:19:09;;;;;;;;;7.00;5.50;;;;;18.81;74.70;100059.47;5095936;27;46070;-59
2022/10/21 10:21:34;;;;;;;;;4.00;4.00;;;;;18.90;75.09;100065.88;5095906;27;45412;-64
2022/10/21 10:24:01;;;;;;;;;11.50;9.25;;;;;18.94;74.37;100059.31;5095886;27;45574;-64
2022/10/21 10:26:37;;;;;;;;;7.00;6.00;;;;;18.97;75.02;100062.63;5096201;27;45672;-60
2022/10/21 10:29:22;;;;;;;;;4.50;4.50;;;;;19.02;74.44;100064.94;5094349;27;48233;-58
2022/10/21 10:31:55;;;;;;;;;7.25;7.25;;;;;19.12;74.50;100065.88;5095449;27;45521;-64
2022/10/21 10:34:34;;;;;;;;;6.00;6.00;;;;;19.19;73.65;100068.91;5095910;27;45440;-60
2022/10/21 10:37:16;;;;;;;;;6.75;6.75;;;;;19.24;73.33;100064.06;5096412;27;45526;-61
2022/10/21 10:39:47;;;;;;;;;5.25;5.25;;;;;19.28;73.93;100062.81;5088478;27;45959;-62
2022/10/21 10:42:43;;;;;;;;;5.25;5.25;;;;;19.24;73.22;100057.88;5098732;27;45463;-61
2022/10/21 10:45:15;;;;;;;;;11.00;9.75;;;;;19.25;73.31;100064.91;5098316;27;45428;-60
2022/10/21 10:47:46;;;;;;;;;5.50;5.50;;;;;19.28;72.60;100069.97;5099081;27;45473;-61
2022/10/21 10:50:36;;;;;;;;;4.25;4.00;;;;;19.26;72.45;100059.44;5098775;27;45478;-65
2022/10/21 10:53:31;;;;;;;;;4.25;3.00;;;;;19.28;72.42;100057.50;5086233;27;45691;-63
2022/10/21 10:56:17;;;;;;;;;6.50;6.00;;;;;19.29;71.91;100053.00;5098488;27;45360;-59
2022/10/21 10:58:49;;;;;;;;;7.50;7.00;;;;;19.33;71.83;100057.97;5099070;27;45450;-63
2022/10/21 11:01:23;;;;;;;;;4.25;4.25;;;;;19.35;71.64;100058.72;5098855;27;45400;-63
2022/10/21 11:03:58;;;;;;;;;3.75;3.75;;;;;19.39;71.64;100064.63;5097061;27;45361;-63
2022/10/21 11:06:35;;;;;;;;;5.75;5.75;;;;;19.39;71.19;100048.63;5099045;27;45417;-63
2022/10/21 11:09:01;;;;;;;;;4.75;3.00;;;;;19.46;71.23;100057.84;5093790;27;45607;-62
2022/10/21 11:11:37;;;;;;;;;9.50;6.00;;;;;19.46;70.79;100052.50;5087201;27;46230;-61
2022/10/21 11:14:08;;;;;;;;;6.00;6.00;;;;;19.52;70.95;100051.16;5098522;27;45599;-62
2022/10/21 11:16:42;;;;;;;;;4.75;3.50;;;;;19.55;68.77;100061.56;5097654;27;45561;-62
2022/10/21 11:19:18;;;;;;;;;5.75;4.00;;;;;19.60;68.19;100054.88;5096683;27;45537;-62
2022/10/21 11:21:51;;;;;;;;;5.50;4.00;;;;;19.66;67.25;100053.56;5096253;27;45442;-63
2022/10/21 11:24:29;;;;;;;;;3.50;3.50;;;;;19.67;66.19;100047.28;5097809;27;45428;-62
2022/10/21 11:27:13;;;;;;;;;4.25;4.25;;;;;19.72;67.01;100052.22;5089419;27;45478;-62
2022/10/21 11:30:10;;;;;;;;;3.50;3.00;;;;;19.76;67.69;100059.00;5087969;27;45365;-62
2022/10/21 11:32:44;;;;;;;;;3.50;3.50;;;;;19.79;66.02;100062.25;5097091;27;45664;-62
2022/10/21 11:35:41;;;;;;;;;2.75;2.75;;;;;19.82;66.09;100058.50;5098164;27;45310;-62
2022/10/21 11:38:12;;;;;;;;;3.00;3.00;;;;;19.86;65.33;100067.94;5095425;27;45426;-62
2022/10/21 11:40:47;;;;;;;;;5.50;4.00;;;;;19.86;64.65;100058.13;5089596;27;45503;-63
2022/10/21 11:43:28;;;;;;;;;3.75;3.75;;;;;19.91;64.27;100072.88;5088869;27;46867;-63